sensor_id;sensor_type;location;lat;lon;timestamp;P1;durP1;ratioP1;P2;durP2;ratioP2
73900;SDS011;62235;52.160;7.526;2023-04-01T00:01:13;9.47;;;5.73;;
73900;SDS011;62235;52.160;7.526;2023-04-01T00:03:39;10.10;;;5.43;;
73900;SDS011;62235;52.160;7.526;2023-04-01T00:06:05;11.60;;;6.43;;
73900;SDS011;62235;52.160;7.526;2023-04-01T00:08:30;9.88;;;5.15;;
73900;SDS011;62235;52.160;7.526;2023-04-01T00:10:56;7.25;;;4.47;;
73900;SDS011;62235;52.160;7.526;2023-04-01T00:13:22;9.13;;;5.00;;
73900;SDS011;62235;52.160;7.526;2023-04-01T00:15:48;8.85;;;4.20;;
73900;SDS011;62235;52.160;7.526;2023-04-01T00:18:14;11.43;;;5.00;;
73900;SDS011;62235;52.160;7.526;2023-04-01T00:20:46;9.70;;;5.00;;
73900;SDS011;62235;52.160;7.526;2023-04-01T00:23:14;8.07;;;3.88;;
73900;SDS011;62235;52.160;7.526;2023-04-01T00:25:40;7.65;;;4.30;;
73900;SDS011;62235;52.160;7.526;2023-04-01T00:28:05;7.95;;;4.28;;
73900;SDS011;62235;52.160;7.526;2023-04-01T00:30:30;8.05;;;4.20;;
73900;SDS011;62235;52.160;7.526;2023-04-01T00:32:56;7.82;;;3.92;;
73900;SDS011;62235;52.160;7.526;2023-04-01T00:35:21;6.28;;;4.03;;
73900;SDS011;62235;52.160;7.526;2023-04-01T00:37:47;8.30;;;3.70;;
73900;SDS011;62235;52.160;7.526;2023-04-01T00:40:23;6.78;;;3.60;;
73900;SDS011;62235;52.160;7.526;2023-04-01T00:42:59;5.55;;;2.95;;
73900;SDS011;62235;52.160;7.526;2023-04-01T00:45:33;5.13;;;3.50;;
73900;SDS011;62235;52.160;7.526;2023-04-01T00:48:02;6.97;;;3.88;;
73900;SDS011;62235;52.160;7.526;2023-04-01T00:50:31;6.00;;;3.92;;
73900;SDS011;62235;52.160;7.526;2023-04-01T00:52:57;9.10;;;4.13;;
73900;SDS011;62235;52.160;7.526;2023-04-01T00:55:24;9.65;;;3.67;;
73900;SDS011;62235;52.160;7.526;2023-04-01T00:57:50;4.78;;;3.33;;
73900;SDS011;62235;52.160;7.526;2023-04-01T01:00:16;7.45;;;3.47;;
73900;SDS011;62235;52.160;7.526;2023-04-01T01:02:43;8.95;;;3.65;;
73900;SDS011;62235;52.160;7.526;2023-04-01T01:05:12;6.60;;;3.30;;
73900;SDS011;62235;52.160;7.526;2023-04-01T01:07:44;5.90;;;3.50;;
73900;SDS011;62235;52.160;7.526;2023-04-01T01:12:44;8.52;;;3.85;;
73900;SDS011;62235;52.160;7.526;2023-04-01T01:28:48;6.28;;;2.70;;
73900;SDS011;62235;52.160;7.526;2023-04-01T01:31:50;8.25;;;3.65;;
73900;SDS011;62235;52.160;7.526;2023-04-01T01:36:48;7.68;;;3.60;;
73900;SDS011;62235;52.160;7.526;2023-04-01T01:39:17;5.65;;;3.70;;
73900;SDS011;62235;52.160;7.526;2023-04-01T01:41:43;6.10;;;3.78;;
73900;SDS011;62235;52.160;7.526;2023-04-01T01:44:11;6.35;;;3.25;;
73900;SDS011;62235;52.160;7.526;2023-04-01T01:46:38;6.07;;;3.70;;
73900;SDS011;62235;52.160;7.526;2023-04-01T01:49:04;7.45;;;3.78;;
73900;SDS011;62235;52.160;7.526;2023-04-01T01:51:31;4.97;;;3.50;;
73900;SDS011;62235;52.160;7.526;2023-04-01T01:53:56;6.40;;;3.70;;
73900;SDS011;62235;52.160;7.526;2023-04-01T01:56:22;7.90;;;4.40;;
73900;SDS011;62235;52.160;7.526;2023-04-01T01:58:50;5.80;;;3.67;;
73900;SDS011;62235;52.160;7.526;2023-04-01T02:01:19;6.20;;;2.90;;
73900;SDS011;62235;52.160;7.526;2023-04-01T02:03:47;5.18;;;3.55;;
73900;SDS011;62235;52.160;7.526;2023-04-01T02:06:14;9.10;;;4.43;;
73900;SDS011;62235;52.160;7.526;2023-04-01T02:08:43;5.65;;;4.07;;
73900;SDS011;62235;52.160;7.526;2023-04-01T02:11:10;8.63;;;3.47;;
73900;SDS011;62235;52.160;7.526;2023-04-01T02:13:39;6.07;;;3.85;;
73900;SDS011;62235;52.160;7.526;2023-04-01T02:16:13;7.10;;;3.22;;
73900;SDS011;62235;52.160;7.526;2023-04-01T02:18:41;6.15;;;4.18;;
73900;SDS011;62235;52.160;7.526;2023-04-01T02:21:08;7.53;;;4.68;;
73900;SDS011;62235;52.160;7.526;2023-04-01T02:23:34;7.05;;;3.90;;
73900;SDS011;62235;52.160;7.526;2023-04-01T02:26:01;8.70;;;3.88;;
73900;SDS011;62235;52.160;7.526;2023-04-01T02:28:26;6.80;;;4.68;;
73900;SDS011;62235;52.160;7.526;2023-04-01T02:30:53;6.22;;;4.45;;
73900;SDS011;62235;52.160;7.526;2023-04-01T02:33:19;9.93;;;4.53;;
73900;SDS011;62235;52.160;7.526;2023-04-01T02:35:45;6.47;;;4.10;;
73900;SDS011;62235;52.160;7.526;2023-04-01T02:38:10;8.67;;;3.87;;
73900;SDS011;62235;52.160;7.526;2023-04-01T02:40:42;5.43;;;4.33;;
73900;SDS011;62235;52.160;7.526;2023-04-01T02:43:14;8.38;;;6.38;;
73900;SDS011;62235;52.160;7.526;2023-04-01T02:45:41;9.50;;;4.88;;
73900;SDS011;62235;52.160;7.526;2023-04-01T02:48:06;7.32;;;4.85;;
73900;SDS011;62235;52.160;7.526;2023-04-01T02:50:32;7.55;;;4.90;;
73900;SDS011;62235;52.160;7.526;2023-04-01T02:52:57;8.50;;;5.40;;
73900;SDS011;62235;52.160;7.526;2023-04-01T02:55:22;6.90;;;5.15;;
73900;SDS011;62235;52.160;7.526;2023-04-01T02:57:48;8.40;;;4.70;;
73900;SDS011;62235;52.160;7.526;2023-04-01T03:00:13;6.65;;;3.92;;
73900;SDS011;62235;52.160;7.526;2023-04-01T03:02:39;7.53;;;4.57;;
73900;SDS011;62235;52.160;7.526;2023-04-01T03:05:05;6.38;;;4.25;;
73900;SDS011;62235;52.160;7.526;2023-04-01T03:07:31;5.85;;;3.70;;
73900;SDS011;62235;52.160;7.526;2023-04-01T03:09:56;6.38;;;3.92;;
73900;SDS011;62235;52.160;7.526;2023-04-01T03:12:21;5.53;;;4.33;;
73900;SDS011;62235;52.160;7.526;2023-04-01T03:14:47;7.13;;;4.10;;
73900;SDS011;62235;52.160;7.526;2023-04-01T03:17:12;6.13;;;4.28;;
73900;SDS011;62235;52.160;7.526;2023-04-01T03:19:38;4.63;;;2.90;;
73900;SDS011;62235;52.160;7.526;2023-04-01T03:22:03;6.78;;;4.90;;
73900;SDS011;62235;52.160;7.526;2023-04-01T03:24:28;4.77;;;3.23;;
73900;SDS011;62235;52.160;7.526;2023-04-01T03:26:53;5.97;;;3.77;;
73900;SDS011;62235;52.160;7.526;2023-04-01T03:29:19;4.55;;;3.17;;
73900;SDS011;62235;52.160;7.526;2023-04-01T03:31:44;5.00;;;3.40;;
73900;SDS011;62235;52.160;7.526;2023-04-01T03:34:10;6.22;;;3.55;;
73900;SDS011;62235;52.160;7.526;2023-04-01T03:36:35;6.63;;;3.80;;
73900;SDS011;62235;52.160;7.526;2023-04-01T03:39:00;3.27;;;2.67;;
73900;SDS011;62235;52.160;7.526;2023-04-01T03:41:26;4.50;;;2.25;;
73900;SDS011;62235;52.160;7.526;2023-04-01T03:43:52;4.13;;;3.40;;
73900;SDS011;62235;52.160;7.526;2023-04-01T03:46:18;4.82;;;2.97;;
73900;SDS011;62235;52.160;7.526;2023-04-01T03:48:45;4.70;;;2.75;;
73900;SDS011;62235;52.160;7.526;2023-04-01T03:51:10;4.60;;;3.33;;
73900;SDS011;62235;52.160;7.526;2023-04-01T03:53:35;5.43;;;3.30;;
73900;SDS011;62235;52.160;7.526;2023-04-01T03:56:04;3.63;;;3.00;;
73900;SDS011;62235;52.160;7.526;2023-04-01T03:58:30;4.45;;;2.92;;
73900;SDS011;62235;52.160;7.526;2023-04-01T04:00:56;4.20;;;2.90;;
73900;SDS011;62235;52.160;7.526;2023-04-01T04:03:21;4.57;;;2.83;;
73900;SDS011;62235;52.160;7.526;2023-04-01T04:05:47;4.83;;;3.20;;
73900;SDS011;62235;52.160;7.526;2023-04-01T04:08:13;6.60;;;3.40;;
73900;SDS011;62235;52.160;7.526;2023-04-01T04:10:38;4.13;;;3.03;;
73900;SDS011;62235;52.160;7.526;2023-04-01T04:13:04;4.63;;;3.47;;
73900;SDS011;62235;52.160;7.526;2023-04-01T04:15:30;5.10;;;3.57;;
73900;SDS011;62235;52.160;7.526;2023-04-01T04:17:55;5.38;;;3.95;;
73900;SDS011;62235;52.160;7.526;2023-04-01T04:20:21;5.90;;;4.37;;
73900;SDS011;62235;52.160;7.526;2023-04-01T04:22:46;3.97;;;3.30;;
73900;SDS011;62235;52.160;7.526;2023-04-01T04:25:11;5.67;;;4.30;;
73900;SDS011;62235;52.160;7.526;2023-04-01T04:27:37;5.85;;;4.07;;
73900;SDS011;62235;52.160;7.526;2023-04-01T04:30:03;6.57;;;4.27;;
73900;SDS011;62235;52.160;7.526;2023-04-01T04:32:30;5.75;;;4.30;;
73900;SDS011;62235;52.160;7.526;2023-04-01T04:34:55;6.80;;;4.60;;
73900;SDS011;62235;52.160;7.526;2023-04-01T04:37:21;5.77;;;4.37;;
73900;SDS011;62235;52.160;7.526;2023-04-01T04:39:46;5.93;;;4.75;;
73900;SDS011;62235;52.160;7.526;2023-04-01T04:42:11;5.97;;;4.17;;
73900;SDS011;62235;52.160;7.526;2023-04-01T04:44:37;5.93;;;4.37;;
73900;SDS011;62235;52.160;7.526;2023-04-01T04:47:02;6.87;;;4.70;;
73900;SDS011;62235;52.160;7.526;2023-04-01T04:49:27;7.95;;;4.90;;
73900;SDS011;62235;52.160;7.526;2023-04-01T04:51:52;9.00;;;5.50;;
73900;SDS011;62235;52.160;7.526;2023-04-01T04:54:18;8.67;;;5.67;;
73900;SDS011;62235;52.160;7.526;2023-04-01T04:56:43;7.00;;;5.03;;
73900;SDS011;62235;52.160;7.526;2023-04-01T04:59:08;10.48;;;5.32;;
73900;SDS011;62235;52.160;7.526;2023-04-01T05:01:34;6.15;;;4.47;;
73900;SDS011;62235;52.160;7.526;2023-04-01T05:03:59;7.78;;;4.68;;
73900;SDS011;62235;52.160;7.526;2023-04-01T05:06:25;7.65;;;4.50;;
73900;SDS011;62235;52.160;7.526;2023-04-01T05:08:54;6.18;;;4.68;;
73900;SDS011;62235;52.160;7.526;2023-04-01T05:11:19;6.63;;;4.00;;
73900;SDS011;62235;52.160;7.526;2023-04-01T05:13:45;6.82;;;4.30;;
73900;SDS011;62235;52.160;7.526;2023-04-01T05:16:12;5.80;;;3.90;;
73900;SDS011;62235;52.160;7.526;2023-04-01T05:18:39;4.93;;;3.65;;
73900;SDS011;62235;52.160;7.526;2023-04-01T05:21:06;5.95;;;4.43;;
73900;SDS011;62235;52.160;7.526;2023-04-01T05:23:32;7.00;;;3.80;;
73900;SDS011;62235;52.160;7.526;2023-04-01T05:25:58;7.38;;;4.80;;
73900;SDS011;62235;52.160;7.526;2023-04-01T05:28:23;7.47;;;3.95;;
73900;SDS011;62235;52.160;7.526;2023-04-01T05:30:49;7.40;;;3.75;;
73900;SDS011;62235;52.160;7.526;2023-04-01T05:33:14;5.20;;;3.40;;
73900;SDS011;62235;52.160;7.526;2023-04-01T05:35:40;7.90;;;5.15;;
73900;SDS011;62235;52.160;7.526;2023-04-01T05:38:06;5.93;;;4.47;;
73900;SDS011;62235;52.160;7.526;2023-04-01T05:40:31;5.75;;;3.85;;
73900;SDS011;62235;52.160;7.526;2023-04-01T05:42:58;7.78;;;3.95;;
73900;SDS011;62235;52.160;7.526;2023-04-01T05:45:23;5.47;;;3.50;;
73900;SDS011;62235;52.160;7.526;2023-04-01T05:47:49;6.57;;;4.88;;
73900;SDS011;62235;52.160;7.526;2023-04-01T05:50:14;8.38;;;5.30;;
73900;SDS011;62235;52.160;7.526;2023-04-01T05:52:40;8.40;;;4.97;;
73900;SDS011;62235;52.160;7.526;2023-04-01T05:55:05;6.20;;;4.32;;
73900;SDS011;62235;52.160;7.526;2023-04-01T05:57:31;8.13;;;5.57;;
73900;SDS011;62235;52.160;7.526;2023-04-01T05:59:56;9.35;;;5.18;;
73900;SDS011;62235;52.160;7.526;2023-04-01T06:02:21;8.47;;;4.50;;
73900;SDS011;62235;52.160;7.526;2023-04-01T06:04:47;8.57;;;5.57;;
73900;SDS011;62235;52.160;7.526;2023-04-01T06:07:12;8.32;;;5.10;;
73900;SDS011;62235;52.160;7.526;2023-04-01T06:09:39;8.32;;;5.15;;
73900;SDS011;62235;52.160;7.526;2023-04-01T06:17:19;8.45;;;5.55;;
73900;SDS011;62235;52.160;7.526;2023-04-01T06:23:13;8.35;;;5.93;;
73900;SDS011;62235;52.160;7.526;2023-04-01T06:39:48;12.30;;;6.90;;
73900;SDS011;62235;52.160;7.526;2023-04-01T06:51:04;11.02;;;6.80;;
73900;SDS011;62235;52.160;7.526;2023-04-01T06:53:53;18.70;;;10.63;;
73900;SDS011;62235;52.160;7.526;2023-04-01T06:56:23;13.55;;;7.70;;
73900;SDS011;62235;52.160;7.526;2023-04-01T07:01:41;16.83;;;10.40;;
73900;SDS011;62235;52.160;7.526;2023-04-01T07:04:11;15.50;;;8.50;;
73900;SDS011;62235;52.160;7.526;2023-04-01T07:06:56;14.13;;;7.90;;
73900;SDS011;62235;52.160;7.526;2023-04-01T07:09:34;15.57;;;9.30;;
73900;SDS011;62235;52.160;7.526;2023-04-01T07:15:01;11.93;;;7.50;;
73900;SDS011;62235;52.160;7.526;2023-04-01T07:17:31;14.60;;;7.93;;
73900;SDS011;62235;52.160;7.526;2023-04-01T07:19:59;15.90;;;8.25;;
73900;SDS011;62235;52.160;7.526;2023-04-01T07:25:13;12.57;;;7.60;;
73900;SDS011;62235;52.160;7.526;2023-04-01T07:27:40;12.00;;;5.85;;
73900;SDS011;62235;52.160;7.526;2023-04-01T07:30:13;12.35;;;6.95;;
73900;SDS011;62235;52.160;7.526;2023-04-01T07:35:35;12.48;;;6.53;;
73900;SDS011;62235;52.160;7.526;2023-04-01T07:41:10;17.35;;;10.15;;
73900;SDS011;62235;52.160;7.526;2023-04-01T07:49:01;15.20;;;7.57;;
73900;SDS011;62235;52.160;7.526;2023-04-01T07:54:19;14.68;;;8.50;;
73900;SDS011;62235;52.160;7.526;2023-04-01T07:59:24;14.00;;;8.93;;
73900;SDS011;62235;52.160;7.526;2023-04-01T08:07:23;11.60;;;7.53;;
73900;SDS011;62235;52.160;7.526;2023-04-01T08:10:08;12.30;;;7.25;;
73900;SDS011;62235;52.160;7.526;2023-04-01T08:15:26;17.05;;;8.30;;
73900;SDS011;62235;52.160;7.526;2023-04-01T08:21:01;22.17;;;9.68;;
73900;SDS011;62235;52.160;7.526;2023-04-01T08:23:28;18.48;;;10.07;;
73900;SDS011;62235;52.160;7.526;2023-04-01T08:28:41;17.52;;;9.20;;
73900;SDS011;62235;52.160;7.526;2023-04-01T08:31:22;12.63;;;7.55;;
73900;SDS011;62235;52.160;7.526;2023-04-01T08:33:54;17.67;;;9.10;;
73900;SDS011;62235;52.160;7.526;2023-04-01T08:38:47;18.63;;;9.52;;
73900;SDS011;62235;52.160;7.526;2023-04-01T08:44:04;18.67;;;9.18;;
73900;SDS011;62235;52.160;7.526;2023-04-01T08:55:51;16.17;;;8.90;;
73900;SDS011;62235;52.160;7.526;2023-04-01T08:57:58;15.65;;;9.48;;
73900;SDS011;62235;52.160;7.526;2023-04-01T09:03:35;12.73;;;7.60;;
73900;SDS011;62235;52.160;7.526;2023-04-01T09:30:27;8.75;;;6.07;;
73900;SDS011;62235;52.160;7.526;2023-04-01T09:33:17;8.50;;;6.32;;
73900;SDS011;62235;52.160;7.526;2023-04-01T09:36:03;11.05;;;7.40;;
73900;SDS011;62235;52.160;7.526;2023-04-01T09:41:28;9.05;;;6.15;;
73900;SDS011;62235;52.160;7.526;2023-04-01T09:49:37;6.70;;;5.18;;
73900;SDS011;62235;52.160;7.526;2023-04-01T09:52:31;6.32;;;5.25;;
73900;SDS011;62235;52.160;7.526;2023-04-01T10:12:00;1.83;;;1.60;;
73900;SDS011;62235;52.160;7.526;2023-04-01T10:30:37;2.70;;;2.17;;
73900;SDS011;62235;52.160;7.526;2023-04-01T11:06:38;2.70;;;2.47;;
73900;SDS011;62235;52.160;7.526;2023-04-01T11:17:47;2.38;;;2.10;;
73900;SDS011;62235;52.160;7.526;2023-04-01T11:51:19;2.35;;;2.00;;
73900;SDS011;62235;52.160;7.526;2023-04-01T12:01:46;3.55;;;2.60;;
73900;SDS011;62235;52.160;7.526;2023-04-01T12:04:23;2.67;;;2.28;;
73900;SDS011;62235;52.160;7.526;2023-04-01T12:15:29;2.38;;;1.90;;
73900;SDS011;62235;52.160;7.526;2023-04-01T12:18:16;1.98;;;1.63;;
73900;SDS011;62235;52.160;7.526;2023-04-01T12:20:49;2.05;;;1.70;;
73900;SDS011;62235;52.160;7.526;2023-04-01T12:23:32;2.00;;;1.75;;
73900;SDS011;62235;52.160;7.526;2023-04-01T12:26:23;2.38;;;2.17;;
73900;SDS011;62235;52.160;7.526;2023-04-01T12:29:03;2.47;;;1.88;;
73900;SDS011;62235;52.160;7.526;2023-04-01T12:42:12;2.80;;;2.05;;
73900;SDS011;62235;52.160;7.526;2023-04-01T12:44:54;3.65;;;2.55;;
73900;SDS011;62235;52.160;7.526;2023-04-01T13:01:03;2.78;;;1.90;;
73900;SDS011;62235;52.160;7.526;2023-04-01T13:03:40;3.83;;;2.45;;
73900;SDS011;62235;52.160;7.526;2023-04-01T13:17:42;2.70;;;1.92;;
73900;SDS011;62235;52.160;7.526;2023-04-01T13:28:35;3.00;;;2.10;;
73900;SDS011;62235;52.160;7.526;2023-04-01T13:32:05;2.97;;;2.25;;
73900;SDS011;62235;52.160;7.526;2023-04-01T13:34:32;3.30;;;2.50;;
73900;SDS011;62235;52.160;7.526;2023-04-01T13:48:56;0.82;;;0.63;;
73900;SDS011;62235;52.160;7.526;2023-04-01T13:54:41;1.70;;;1.35;;
73900;SDS011;62235;52.160;7.526;2023-04-01T14:15:33;4.90;;;2.90;;
73900;SDS011;62235;52.160;7.526;2023-04-01T14:18:13;3.20;;;1.48;;
73900;SDS011;62235;52.160;7.526;2023-04-01T14:20:42;5.32;;;2.55;;
73900;SDS011;62235;52.160;7.526;2023-04-01T14:29:26;2.45;;;1.67;;
73900;SDS011;62235;52.160;7.526;2023-04-01T14:34:18;3.17;;;1.70;;
73900;SDS011;62235;52.160;7.526;2023-04-01T14:36:53;3.22;;;2.17;;
73900;SDS011;62235;52.160;7.526;2023-04-01T14:42:17;3.45;;;2.30;;
73900;SDS011;62235;52.160;7.526;2023-04-01T14:44:54;3.15;;;1.52;;
73900;SDS011;62235;52.160;7.526;2023-04-01T14:50:08;1.15;;;0.90;;
73900;SDS011;62235;52.160;7.526;2023-04-01T14:52:38;1.90;;;0.75;;
73900;SDS011;62235;52.160;7.526;2023-04-01T14:57:57;0.85;;;0.45;;
73900;SDS011;62235;52.160;7.526;2023-04-01T15:00:24;2.80;;;1.67;;
73900;SDS011;62235;52.160;7.526;2023-04-01T15:03:00;3.42;;;1.98;;
73900;SDS011;62235;52.160;7.526;2023-04-01T15:30:32;1.23;;;0.73;;
73900;SDS011;62235;52.160;7.526;2023-04-01T15:33:02;2.33;;;1.48;;
73900;SDS011;62235;52.160;7.526;2023-04-01T15:35:36;3.22;;;2.00;;
73900;SDS011;62235;52.160;7.526;2023-04-01T15:38:07;1.83;;;1.40;;
73900;SDS011;62235;52.160;7.526;2023-04-01T15:43:50;1.42;;;1.05;;
73900;SDS011;62235;52.160;7.526;2023-04-01T15:46:30;1.30;;;1.00;;
73900;SDS011;62235;52.160;7.526;2023-04-01T15:49:09;0.98;;;0.88;;
73900;SDS011;62235;52.160;7.526;2023-04-01T15:54:22;0.57;;;0.55;;
73900;SDS011;62235;52.160;7.526;2023-04-01T16:05:54;1.00;;;0.82;;
73900;SDS011;62235;52.160;7.526;2023-04-01T16:11:15;0.35;;;0.35;;
73900;SDS011;62235;52.160;7.526;2023-04-01T16:19:49;0.80;;;0.50;;
73900;SDS011;62235;52.160;7.526;2023-04-01T16:22:13;1.20;;;0.70;;
73900;SDS011;62235;52.160;7.526;2023-04-01T16:24:50;2.45;;;1.08;;
73900;SDS011;62235;52.160;7.526;2023-04-01T16:27:36;1.85;;;1.10;;
73900;SDS011;62235;52.160;7.526;2023-04-01T16:35:53;1.77;;;1.38;;
73900;SDS011;62235;52.160;7.526;2023-04-01T16:38:24;1.00;;;0.80;;
73900;SDS011;62235;52.160;7.526;2023-04-01T16:41:04;2.38;;;1.58;;
73900;SDS011;62235;52.160;7.526;2023-04-01T16:43:44;1.35;;;0.93;;
73900;SDS011;62235;52.160;7.526;2023-04-01T16:54:14;1.25;;;1.00;;
73900;SDS011;62235;52.160;7.526;2023-04-01T17:02:18;0.90;;;0.60;;
73900;SDS011;62235;52.160;7.526;2023-04-01T17:04:57;1.15;;;0.68;;
73900;SDS011;62235;52.160;7.526;2023-04-01T17:15:40;1.33;;;0.82;;
73900;SDS011;62235;52.160;7.526;2023-04-01T17:21:28;4.60;;;1.65;;
73900;SDS011;62235;52.160;7.526;2023-04-01T17:23:49;0.93;;;0.65;;
73900;SDS011;62235;52.160;7.526;2023-04-01T17:26:28;0.50;;;0.50;;
73900;SDS011;62235;52.160;7.526;2023-04-01T17:28:58;2.50;;;1.65;;
73900;SDS011;62235;52.160;7.526;2023-04-01T17:31:46;0.65;;;0.65;;
73900;SDS011;62235;52.160;7.526;2023-04-01T17:39:43;0.77;;;0.57;;
73900;SDS011;62235;52.160;7.526;2023-04-01T17:42:22;1.50;;;0.85;;
73900;SDS011;62235;52.160;7.526;2023-04-01T17:45:24;3.03;;;2.40;;
73900;SDS011;62235;52.160;7.526;2023-04-01T17:53:45;0.50;;;0.30;;
73900;SDS011;62235;52.160;7.526;2023-04-01T17:59:17;0.80;;;0.50;;
73900;SDS011;62235;52.160;7.526;2023-04-01T18:04:55;1.15;;;0.85;;
73900;SDS011;62235;52.160;7.526;2023-04-01T18:10:31;0.73;;;0.63;;
73900;SDS011;62235;52.160;7.526;2023-04-01T18:21:47;1.77;;;0.60;;
73900;SDS011;62235;52.160;7.526;2023-04-01T18:26:43;1.07;;;0.63;;
73900;SDS011;62235;52.160;7.526;2023-04-01T18:29:18;0.70;;;0.70;;
73900;SDS011;62235;52.160;7.526;2023-04-01T18:31:52;0.73;;;0.70;;
73900;SDS011;62235;52.160;7.526;2023-04-01T18:34:30;0.70;;;0.47;;
73900;SDS011;62235;52.160;7.526;2023-04-01T18:37:17;1.17;;;0.68;;
73900;SDS011;62235;52.160;7.526;2023-04-01T18:39:56;0.73;;;0.50;;
73900;SDS011;62235;52.160;7.526;2023-04-01T18:42:38;0.80;;;0.50;;
73900;SDS011;62235;52.160;7.526;2023-04-01T18:45:32;1.15;;;0.57;;
73900;SDS011;62235;52.160;7.526;2023-04-01T18:48:06;0.93;;;0.68;;
73900;SDS011;62235;52.160;7.526;2023-04-01T18:50:59;1.35;;;0.93;;
73900;SDS011;62235;52.160;7.526;2023-04-01T18:53:43;1.40;;;0.50;;
73900;SDS011;62235;52.160;7.526;2023-04-01T18:56:23;0.70;;;0.70;;
73900;SDS011;62235;52.160;7.526;2023-04-01T19:18:38;0.82;;;0.77;;
73900;SDS011;62235;52.160;7.526;2023-04-01T19:21:29;2.08;;;1.05;;
73900;SDS011;62235;52.160;7.526;2023-04-01T19:24:10;0.65;;;0.60;;
73900;SDS011;62235;52.160;7.526;2023-04-01T19:26:42;0.98;;;0.70;;
73900;SDS011;62235;52.160;7.526;2023-04-01T19:41:00;1.08;;;0.98;;
73900;SDS011;62235;52.160;7.526;2023-04-01T19:46:23;2.65;;;1.40;;
73900;SDS011;62235;52.160;7.526;2023-04-01T19:51:33;2.28;;;1.15;;
73900;SDS011;62235;52.160;7.526;2023-04-01T19:54:14;1.23;;;1.00;;
73900;SDS011;62235;52.160;7.526;2023-04-01T19:59:46;2.15;;;1.52;;
73900;SDS011;62235;52.160;7.526;2023-04-01T20:05:04;1.08;;;1.00;;
73900;SDS011;62235;52.160;7.526;2023-04-01T20:07:51;2.47;;;1.17;;
73900;SDS011;62235;52.160;7.526;2023-04-01T20:10:22;2.10;;;1.30;;
73900;SDS011;62235;52.160;7.526;2023-04-01T20:15:46;1.23;;;0.82;;
73900;SDS011;62235;52.160;7.526;2023-04-01T20:18:16;1.17;;;0.82;;
73900;SDS011;62235;52.160;7.526;2023-04-01T20:20:53;1.90;;;1.27;;
73900;SDS011;62235;52.160;7.526;2023-04-01T20:23:26;1.63;;;1.17;;
73900;SDS011;62235;52.160;7.526;2023-04-01T20:26:02;1.70;;;1.25;;
73900;SDS011;62235;52.160;7.526;2023-04-01T20:28:44;2.40;;;1.48;;
73900;SDS011;62235;52.160;7.526;2023-04-01T20:31:31;1.58;;;1.05;;
73900;SDS011;62235;52.160;7.526;2023-04-01T20:37:00;3.20;;;1.25;;
73900;SDS011;62235;52.160;7.526;2023-04-01T20:42:46;1.02;;;0.90;;
73900;SDS011;62235;52.160;7.526;2023-04-01T20:45:37;1.73;;;1.20;;
73900;SDS011;62235;52.160;7.526;2023-04-01T20:51:22;0.90;;;0.73;;
73900;SDS011;62235;52.160;7.526;2023-04-01T21:04:45;0.50;;;0.47;;
73900;SDS011;62235;52.160;7.526;2023-04-01T21:07:41;2.20;;;1.83;;
73900;SDS011;62235;52.160;7.526;2023-04-01T21:15:21;1.85;;;0.77;;
73900;SDS011;62235;52.160;7.526;2023-04-01T21:23:35;1.23;;;0.80;;
73900;SDS011;62235;52.160;7.526;2023-04-01T21:37:49;0.75;;;0.52;;
73900;SDS011;62235;52.160;7.526;2023-04-01T21:43:04;1.35;;;1.23;;
73900;SDS011;62235;52.160;7.526;2023-04-01T21:54:18;1.73;;;1.02;;
73900;SDS011;62235;52.160;7.526;2023-04-01T22:05:13;1.40;;;0.88;;
73900;SDS011;62235;52.160;7.526;2023-04-01T22:11:03;1.73;;;1.38;;
73900;SDS011;62235;52.160;7.526;2023-04-01T22:13:34;2.30;;;1.73;;
73900;SDS011;62235;52.160;7.526;2023-04-01T22:30:06;1.35;;;0.80;;
73900;SDS011;62235;52.160;7.526;2023-04-01T22:32:41;2.75;;;1.63;;
73900;SDS011;62235;52.160;7.526;2023-04-01T22:40:21;1.87;;;1.43;;
73900;SDS011;62235;52.160;7.526;2023-04-01T22:42:59;2.35;;;1.52;;
73900;SDS011;62235;52.160;7.526;2023-04-01T22:45:44;0.43;;;0.38;;
73900;SDS011;62235;52.160;7.526;2023-04-01T22:51:18;2.40;;;1.05;;
73900;SDS011;62235;52.160;7.526;2023-04-01T22:56:30;2.03;;;1.60;;
73900;SDS011;62235;52.160;7.526;2023-04-01T22:59:04;1.90;;;1.33;;
73900;SDS011;62235;52.160;7.526;2023-04-01T23:01:34;1.52;;;0.93;;
73900;SDS011;62235;52.160;7.526;2023-04-01T23:04:04;1.60;;;1.08;;
73900;SDS011;62235;52.160;7.526;2023-04-01T23:06:32;2.88;;;1.42;;
73900;SDS011;62235;52.160;7.526;2023-04-01T23:11:50;1.65;;;0.70;;
73900;SDS011;62235;52.160;7.526;2023-04-01T23:22:52;5.95;;;2.22;;
73900;SDS011;62235;52.160;7.526;2023-04-01T23:27:49;3.25;;;1.92;;
73900;SDS011;62235;52.160;7.526;2023-04-01T23:33:15;2.55;;;1.75;;
73900;SDS011;62235;52.160;7.526;2023-04-01T23:36:31;3.72;;;2.25;;
73900;SDS011;62235;52.160;7.526;2023-04-01T23:38:40;3.33;;;1.95;;
73900;SDS011;62235;52.160;7.526;2023-04-01T23:41:06;3.08;;;2.03;;
73900;SDS011;62235;52.160;7.526;2023-04-01T23:43:35;2.85;;;1.85;;
73900;SDS011;62235;52.160;7.526;2023-04-01T23:46:02;1.65;;;1.15;;
73900;SDS011;62235;52.160;7.526;2023-04-01T23:48:36;2.92;;;1.70;;
73900;SDS011;62235;52.160;7.526;2023-04-01T23:51:10;3.78;;;1.63;;
73900;SDS011;62235;52.160;7.526;2023-04-01T23:53:41;5.45;;;2.40;;
73900;SDS011;62235;52.160;7.526;2023-04-01T23:56:09;3.65;;;1.98;;
73900;SDS011;62235;52.160;7.526;2023-04-01T23:58:51;5.32;;;2.65;;
